Time;durP1;ratioP1;P1;durP2;ratioP2;P2;SDS_P1;SDS_P2;PMS_P1;PMS_P2;Temp;Humidity;BMP_temperature;BMP_pressure;BME280_temperature;BME280_humidity;BME280_pressure;Samples;Min_cycle;Max_cycle;Signal;HPM_P1;HPM_P2
2022/10/12 00:01:35;;;;;;;31.67;21.02;;;12.90;99.90;;;;;;4839006;29;19928;-55
2022/10/12 00:04:02;;;;;;;40.15;23.42;;;12.90;99.90;;;;;;4835180;29;20072;-55
2022/10/12 00:06:28;;;;;;;35.55;24.02;;;12.90;99.90;;;;;;4836716;29;20140;-54
2022/10/12 00:08:56;;;;;;;44.40;24.85;;;12.90;99.90;;;;;;4836054;29;20255;-53
2022/10/12 00:11:26;;;;;;;41.22;24.98;;;12.90;99.90;;;;;;4833590;29;20623;-54
2022/10/12 00:13:54;;;;;;;43.67;24.48;;;12.90;99.90;;;;;;4838882;29;20057;-54
2022/10/12 00:16:22;;;;;;;32.00;22.02;;;12.80;99.90;;;;;;4840576;29;20547;-54
2022/10/12 00:18:54;;;;;;;30.92;19.10;;;12.90;99.90;;;;;;4839268;29;20108;-54
2022/10/12 00:21:22;;;;;;;26.80;18.85;;;12.90;99.90;;;;;;4837218;29;20520;-51
2022/10/12 00:23:49;;;;;;;39.22;21.70;;;12.80;99.90;;;;;;4834268;29;20558;-52
2022/10/12 00:26:18;;;;;;;38.17;23.27;;;12.80;99.90;;;;;;4840343;29;20045;-57
2022/10/12 00:28:46;;;;;;;48.05;24.17;;;12.80;99.90;;;;;;4835287;29;20144;-54
2022/10/12 00:31:18;;;;;;;40.20;25.23;;;12.80;99.90;;;;;;4838171;29;20077;-52
2022/10/12 00:33:46;;;;;;;41.40;25.85;;;12.80;99.90;;;;;;4840647;29;20184;-54
2022/10/12 00:36:24;;;;;;;42.10;25.70;;;12.80;99.90;;;;;;4835435;29;20141;-54
2022/10/12 00:38:53;;;;;;;47.97;26.23;;;12.80;99.90;;;;;;4835850;29;20049;-55
2022/10/12 00:41:24;;;;;;;45.50;26.45;;;12.80;99.90;;;;;;4834931;29;20137;-53
2022/10/12 00:43:52;;;;;;;33.22;21.15;;;12.70;99.90;;;;;;4834317;29;20571;-53
2022/10/12 00:46:35;;;;;;;42.28;24.77;;;12.70;99.90;;;;;;4835593;29;20060;-55
2022/10/12 00:49:17;;;;;;;39.00;24.00;;;12.70;99.90;;;;;;4839465;29;20041;-56
2022/10/12 00:51:47;;;;;;;41.65;23.95;;;12.70;99.90;;;;;;4830515;29;20128;-54
2022/10/12 00:54:20;;;;;;;53.83;26.50;;;12.60;99.90;;;;;;4838661;29;20054;-56
2022/10/12 00:56:49;;;;;;;53.15;27.02;;;12.60;99.90;;;;;;4839505;29;20126;-57
2022/10/12 00:59:22;;;;;;;42.65;26.05;;;12.60;99.90;;;;;;4839303;29;20352;-52
2022/10/12 01:01:49;;;;;;;55.97;27.83;;;12.60;99.90;;;;;;4839635;29;20045;-57
2022/10/12 01:04:16;;;;;;;51.00;29.50;;;12.60;99.90;;;;;;4837926;29;20503;-54
2022/10/12 01:06:43;;;;;;;53.10;30.00;;;12.60;99.90;;;;;;4836295;29;20056;-56
2022/10/12 01:09:10;;;;;;;53.47;30.42;;;12.60;99.90;;;;;;4833004;29;20525;-52
2022/10/12 01:11:36;;;;;;;53.92;27.45;;;12.50;99.90;;;;;;4834316;29;20122;-50
2022/10/12 01:14:03;;;;;;;46.13;27.65;;;12.50;99.90;;;;;;4837189;29;20054;-56
2022/10/12 01:16:41;;;;;;;;;;;12.50;99.90;;;;;;4837777;29;20045;-52
2022/10/12 01:19:50;;;;;;;57.58;31.38;;;12.50;99.90;;;;;;4839343;29;19928;-53
2022/10/12 01:22:23;;;;;;;61.45;30.15;;;12.50;99.90;;;;;;4837195;29;20137;-52
2022/10/12 01:25:16;;;;;;;53.20;29.90;;;12.50;99.90;;;;;;4837233;29;20552;-54
2022/10/12 01:27:50;;;;;;;58.88;31.25;;;12.50;99.90;;;;;;4839695;29;20057;-54
2022/10/12 01:30:21;;;;;;;52.30;29.02;;;12.50;99.90;;;;;;4836137;29;20080;-55
2022/10/12 01:33:01;;;;;;;47.20;30.27;;;12.40;99.90;;;;;;4838972;29;20142;-53
2022/10/12 01:36:03;;;;;;;54.47;32.63;;;12.50;99.90;;;;;;4835457;29;20056;-53
2022/10/12 01:38:55;;;;;;;65.75;35.72;;;12.40;99.90;;;;;;4837209;29;20867;-56
2022/10/12 01:41:35;;;;;;;59.60;34.78;;;12.40;99.90;;;;;;4822335;29;20145;-56
2022/10/12 01:44:02;;;;;;;53.60;32.70;;;12.40;99.90;;;;;;4835914;29;20053;-58
2022/10/12 01:46:28;;;;;;;56.58;34.88;;;12.30;99.90;;;;;;4832620;29;20056;-52
2022/10/12 01:48:58;;;;;;;65.90;35.05;;;12.30;99.90;;;;;;4838898;29;20159;-51
2022/10/12 01:51:31;;;;;;;49.72;32.10;;;12.30;99.90;;;;;;4837906;29;20056;-57
2022/10/12 01:54:07;;;;;;;59.10;33.20;;;12.30;99.90;;;;;;4832354;29;20077;-53
2022/10/12 01:56:39;;;;;;;70.28;34.90;;;12.30;99.90;;;;;;4835099;29;20081;-55
2022/10/12 01:59:12;;;;;;;53.33;31.70;;;12.30;99.90;;;;;;4832970;29;20476;-56
2022/10/12 02:01:54;;;;;;;50.25;31.95;;;12.30;99.90;;;;;;4837306;29;20060;-52
2022/10/12 02:04:33;;;;;;;69.32;36.00;;;12.30;99.90;;;;;;4837869;29;20308;-51
2022/10/12 02:07:28;;;;;;;51.92;29.75;;;12.30;99.90;;;;;;4836944;29;20436;-53
2022/10/12 02:09:57;;;;;;;46.95;29.75;;;12.20;99.90;;;;;;4832105;29;20276;-57
2022/10/12 02:12:27;;;;;;;47.53;31.15;;;12.20;99.90;;;;;;4835597;29;20053;-50
2022/10/12 02:14:59;;;;;;;40.53;25.35;;;12.20;99.90;;;;;;4837666;29;20057;-50
2022/10/12 02:17:26;;;;;;;47.72;30.55;;;12.20;99.90;;;;;;4834148;29;20618;-54
2022/10/12 02:19:57;;;;;;;48.53;30.60;;;12.20;99.90;;;;;;4837693;29;20045;-54
2022/10/12 02:22:32;;;;;;;47.83;27.80;;;12.20;99.90;;;;;;4838758;29;20068;-55
2022/10/12 02:25:06;;;;;;;37.30;24.23;;;12.20;99.90;;;;;;4832667;29;20088;-52
2022/10/12 02:27:35;;;;;;;55.47;30.88;;;12.20;99.90;;;;;;4834216;29;20046;-55
2022/10/12 02:30:03;;;;;;;47.92;29.58;;;12.20;99.90;;;;;;4831801;29;20252;-55
2022/10/12 02:32:46;;;;;;;44.65;28.10;;;12.30;99.90;;;;;;4836516;29;20529;-50
2022/10/12 02:35:25;;;;;;;35.35;22.90;;;12.20;99.90;;;;;;4835327;29;20636;-55
2022/10/12 02:38:09;;;;;;;41.13;25.05;;;12.30;99.90;;;;;;4835654;29;20135;-57
2022/10/12 02:41:03;;;;;;;45.63;30.58;;;12.30;99.90;;;;;;4837319;29;20046;-54
2022/10/12 02:43:44;;;;;;;39.05;25.60;;;12.20;99.90;;;;;;4836278;29;20074;-54
2022/10/12 02:46:11;;;;;;;39.53;24.10;;;12.20;99.90;;;;;;4836069;29;20463;-52
2022/10/12 02:48:40;;;;;;;42.28;26.13;;;12.30;99.90;;;;;;4831715;29;20061;-52
2022/10/12 02:51:09;;;;;;;42.95;27.30;;;12.20;99.90;;;;;;4835326;29;20300;-55
2022/10/12 02:53:37;;;;;;;40.33;28.30;;;12.30;99.90;;;;;;4837944;29;20324;-57
2022/10/12 02:56:09;;;;;;;51.90;29.77;;;12.30;99.90;;;;;;4836152;29;20049;-54
2022/10/12 02:58:35;;;;;;;49.35;29.00;;;12.30;99.90;;;;;;4835989;29;20614;-55
2022/10/12 03:01:02;;;;;;;;;;;12.30;99.90;;;;;;4812635;29;20129;-55
2022/10/12 03:03:29;;;;;;;54.70;31.10;;;12.30;99.90;;;;;;4833277;29;19939;-55
2022/10/12 03:05:56;;;;;;;;;;;12.30;99.90;;;;;;4831900;29;20081;-56
2022/10/12 03:08:22;;;;;;;47.83;27.83;;;12.30;99.90;;;;;;4831904;29;19928;-52
2022/10/12 03:10:49;;;;;;;50.60;30.73;;;12.30;99.90;;;;;;4833220;29;20325;-53
2022/10/12 03:13:16;;;;;;;43.17;29.13;;;12.30;99.90;;;;;;4838497;29;20049;-56
2022/10/12 03:15:42;;;;;;;;;;;12.30;99.90;;;;;;4835482;29;20133;-58
2022/10/12 03:18:09;;;;;;;53.58;31.10;;;12.30;99.90;;;;;;4833415;29;19928;-51
2022/10/12 03:20:36;;;;;;;;;;;12.30;99.90;;;;;;4841214;29;20141;-54
2022/10/12 03:23:03;;;;;;;51.42;29.33;;;12.30;99.90;;;;;;4830455;29;20427;-54
2022/10/12 03:25:30;;;;;;;55.92;33.45;;;12.20;99.90;;;;;;4836179;29;20053;-52
2022/10/12 03:27:56;;;;;;;50.30;32.20;;;12.20;99.90;;;;;;4839669;29;20499;-56
2022/10/12 03:30:23;;;;;;;50.92;32.20;;;12.20;99.90;;;;;;4840516;29;20055;-55
2022/10/12 03:32:49;;;;;;;50.63;29.05;;;12.20;99.90;;;;;;4838470;29;20041;-53
2022/10/12 03:35:16;;;;;;;45.33;30.92;;;12.20;99.90;;;;;;4836725;29;20053;-58
2022/10/12 03:37:43;;;;;;;;;;;12.20;99.90;;;;;;4841586;29;20683;-54
2022/10/12 03:40:10;;;;;;;49.30;31.30;;;12.20;99.90;;;;;;4835759;29;20339;-55
2022/10/12 03:42:37;;;;;;;54.97;32.33;;;12.20;99.90;;;;;;4830724;29;20638;-55
2022/10/12 03:45:04;;;;;;;58.22;33.08;;;12.20;99.90;;;;;;4837174;29;20077;-57
2022/10/12 03:47:30;;;;;;;58.38;37.38;;;12.20;99.90;;;;;;4840204;29;20615;-54
2022/10/12 03:49:57;;;;;;;61.80;37.83;;;12.20;99.90;;;;;;4836733;29;20081;-58
2022/10/12 03:52:24;;;;;;;70.85;39.28;;;12.20;99.90;;;;;;4840948;29;20046;-57
2022/10/12 03:54:50;;;;;;;70.80;40.30;;;12.10;99.90;;;;;;4838156;29;20050;-53
2022/10/12 03:57:17;;;;;;;;;;;12.10;99.90;;;;;;4837400;29;20084;-58
2022/10/12 03:59:44;;;;;;;63.80;36.75;;;12.10;99.90;;;;;;4841835;29;19935;-54
2022/10/12 04:02:10;;;;;;;54.70;34.67;;;12.10;99.90;;;;;;4839298;29;20081;-53
2022/10/12 04:04:42;;;;;;;55.60;32.47;;;12.10;99.90;;;;;;4836875;29;20152;-54
2022/10/12 04:07:09;;;;;;;50.50;31.15;;;12.10;99.90;;;;;;4841654;29;20564;-56
2022/10/12 04:09:36;;;;;;;57.80;35.80;;;12.10;99.90;;;;;;4835978;29;20057;-55
2022/10/12 04:12:03;;;;;;;43.35;26.95;;;12.10;99.90;;;;;;4835085;29;20055;-56
2022/10/12 04:14:29;;;;;;;39.65;25.40;;;12.10;99.90;;;;;;4838989;29;20056;-58
2022/10/12 04:16:56;;;;;;;51.88;31.75;;;12.10;99.90;;;;;;4837845;29;20517;-54
2022/10/12 04:19:23;;;;;;;;;;;12.10;99.90;;;;;;4838700;29;20081;-56
2022/10/12 04:21:50;;;;;;;40.85;27.38;;;12.10;99.90;;;;;;4832330;29;19928;-58
2022/10/12 04:24:16;;;;;;;49.08;30.50;;;12.10;99.90;;;;;;4837979;29;20052;-53
2022/10/12 04:26:43;;;;;;;40.25;24.83;;;12.10;99.90;;;;;;4841260;29;20046;-54
2022/10/12 04:29:11;;;;;;;;;;;12.10;99.90;;;;;;4843038;29;20053;-55
2022/10/12 04:31:38;;;;;;;;;;;12.10;99.90;;;;;;4836574;29;19935;-55
2022/10/12 04:34:04;;;;;;;43.13;27.35;;;12.10;99.90;;;;;;4836478;29;19928;-57
2022/10/12 04:36:31;;;;;;;44.90;28.48;;;12.10;99.90;;;;;;4833513;29;20121;-57
2022/10/12 04:38:58;;;;;;;46.30;28.95;;;12.10;99.90;;;;;;4837744;29;20060;-56
2022/10/12 04:41:27;;;;;;;51.83;31.83;;;12.10;99.90;;;;;;4836948;29;20153;-53
2022/10/12 04:43:53;;;;;;;;;;;12.10;99.90;;;;;;4835362;29;20200;-55
2022/10/12 04:46:21;;;;;;;46.90;29.38;;;12.10;99.90;;;;;;4837970;29;20230;-54
2022/10/12 04:48:48;;;;;;;38.20;24.73;;;12.10;99.90;;;;;;4839486;29;20050;-53
2022/10/12 04:51:14;;;;;;;40.80;26.02;;;12.10;99.90;;;;;;4837805;29;20579;-55
2022/10/12 04:53:41;;;;;;;58.45;36.70;;;12.10;99.90;;;;;;4833537;29;20050;-55
2022/10/12 04:56:08;;;;;;;;;;;12.10;99.90;;;;;;4835636;29;20045;-53
2022/10/12 04:58:35;;;;;;;48.95;31.50;;;12.00;99.90;;;;;;4837026;29;19928;-54
2022/10/12 05:01:01;;;;;;;;;;;12.00;99.90;;;;;;4838714;29;20572;-56
2022/10/12 05:03:28;;;;;;;50.60;33.50;;;12.00;99.90;;;;;;4837858;29;20589;-53
2022/10/12 05:05:55;;;;;;;46.03;28.63;;;12.00;99.90;;;;;;4841719;29;20580;-55
2022/10/12 05:08:22;;;;;;;46.05;26.98;;;12.00;99.90;;;;;;4839183;29;20196;-58
2022/10/12 05:10:48;;;;;;;;;;;12.00;99.90;;;;;;4838354;29;20105;-55
2022/10/12 05:13:15;;;;;;;50.88;32.33;;;12.00;99.90;;;;;;4844899;29;19938;-52
2022/10/12 05:15:43;;;;;;;56.05;35.17;;;12.00;99.90;;;;;;4838877;29;20049;-51
2022/10/12 05:18:10;;;;;;;62.53;36.53;;;12.00;99.90;;;;;;4837297;29;20060;-56
2022/10/12 05:20:36;;;;;;;59.28;36.17;;;12.00;99.90;;;;;;4842219;29;20049;-57
2022/10/12 05:23:03;;;;;;;57.83;33.17;;;12.00;99.90;;;;;;4835004;29;20346;-54
2022/10/12 05:25:30;;;;;;;48.88;31.10;;;12.00;99.90;;;;;;4837849;29;20424;-51
2022/10/12 05:27:56;;;;;;;;;;;12.00;99.90;;;;;;4842380;29;20594;-57
2022/10/12 05:30:23;;;;;;;57.88;33.47;;;12.00;99.90;;;;;;4830870;29;19928;-55
2022/10/12 05:32:50;;;;;;;42.92;27.73;;;12.10;99.90;;;;;;4836296;29;20075;-50
2022/10/12 05:35:17;;;;;;;53.70;31.98;;;12.00;99.90;;;;;;4837266;29;20050;-55
2022/10/12 05:37:44;;;;;;;58.05;33.50;;;12.00;99.90;;;;;;4833589;29;20045;-53
2022/10/12 05:40:10;;;;;;;51.92;31.77;;;12.00;99.90;;;;;;4833181;29;20048;-54
2022/10/12 05:42:37;;;;;;;55.58;31.80;;;12.00;99.90;;;;;;4833856;29;20053;-54
2022/10/12 05:45:05;;;;;;;53.63;33.10;;;12.00;99.90;;;;;;4829905;29;20045;-53
2022/10/12 05:47:32;;;;;;;51.60;33.15;;;12.00;99.90;;;;;;4832517;29;20533;-52
2022/10/12 05:49:58;;;;;;;49.92;29.77;;;12.00;99.90;;;;;;4836026;29;20594;-54
2022/10/12 05:52:25;;;;;;;;;;;12.00;99.90;;;;;;4834440;29;20049;-51
2022/10/12 05:54:52;;;;;;;62.38;32.55;;;12.00;99.90;;;;;;4838537;29;19936;-53
2022/10/12 05:57:19;;;;;;;53.60;32.47;;;12.00;99.90;;;;;;4835054;29;20128;-53
2022/10/12 05:59:45;;;;;;;;;;;12.10;99.90;;;;;;4836598;29;20054;-58
2022/10/12 06:02:14;;;;;;;46.67;29.05;;;12.10;99.90;;;;;;4837161;29;19932;-52
2022/10/12 06:04:41;;;;;;;46.25;26.75;;;12.10;99.90;;;;;;4842912;29;20061;-51
2022/10/12 06:07:08;;;;;;;37.97;26.13;;;12.10;99.90;;;;;;4838281;29;20060;-52
2022/10/12 06:09:37;;;;;;;38.55;24.05;;;12.10;99.90;;;;;;4838383;29;20613;-53
2022/10/12 06:12:05;;;;;;;40.50;24.58;;;12.00;99.90;;;;;;4833614;29;20046;-55
2022/10/12 06:14:32;;;;;;;34.60;22.38;;;12.00;99.90;;;;;;4838993;29;20045;-54
2022/10/12 06:16:59;;;;;;;36.58;22.40;;;12.00;99.90;;;;;;4841239;29;20046;-55
2022/10/12 06:19:25;;;;;;;43.80;26.65;;;12.10;99.90;;;;;;4834970;29;20605;-51
2022/10/12 06:21:52;;;;;;;;;;;12.00;99.90;;;;;;4832247;29;20073;-56
2022/10/12 06:24:19;;;;;;;37.28;23.42;;;12.10;99.90;;;;;;4837047;29;20039;-53
2022/10/12 06:26:45;;;;;;;33.28;22.48;;;12.10;99.90;;;;;;4829231;29;20064;-50
2022/10/12 06:29:12;;;;;;;42.88;27.42;;;12.10;99.90;;;;;;4834612;29;20526;-55
2022/10/12 06:31:39;;;;;;;49.55;29.92;;;12.10;99.90;;;;;;4838382;29;20052;-54
2022/10/12 06:34:05;;;;;;;43.85;27.35;;;12.20;99.90;;;;;;4832430;29;20049;-57
2022/10/12 06:36:32;;;;;;;;;;;12.10;99.90;;;;;;4837772;29;20145;-53
2022/10/12 06:38:58;;;;;;;34.65;23.25;;;12.20;99.90;;;;;;4841917;29;19935;-55
2022/10/12 06:41:25;;;;;;;34.08;23.48;;;12.20;99.90;;;;;;4840433;29;20664;-57
2022/10/12 06:43:52;;;;;;;37.15;22.95;;;12.20;99.90;;;;;;4831951;29;20049;-55
2022/10/12 06:46:19;;;;;;;35.88;22.35;;;12.20;99.90;;;;;;4830889;29;22016;-56
2022/10/12 06:48:45;;;;;;;36.38;21.83;;;12.20;99.90;;;;;;4835915;29;20053;-58
2022/10/12 06:51:12;;;;;;;48.03;29.30;;;12.30;99.90;;;;;;4839042;29;20056;-52
2022/10/12 06:53:39;;;;;;;;;;;12.30;99.90;;;;;;4835977;29;20334;-55
2022/10/12 06:56:07;;;;;;;31.23;20.02;;;12.30;99.90;;;;;;4837082;29;20508;-55
2022/10/12 06:58:34;;;;;;;37.95;19.00;;;12.30;99.90;;;;;;4830764;29;20152;-57
2022/10/12 07:01:02;;;;;;;25.95;17.10;;;12.30;99.90;;;;;;4834180;29;20152;-56
2022/10/12 07:03:30;;;;;;;25.13;15.95;;;12.30;99.90;;;;;;4840125;29;20061;-56
2022/10/12 07:06:11;;;;;;;21.83;15.32;;;12.40;99.90;;;;;;4836214;29;20440;-51
2022/10/12 07:08:40;;;;;;;27.83;16.13;;;12.40;99.90;;;;;;4838274;29;20049;-55
2022/10/12 07:11:09;;;;;;;27.30;15.75;;;12.40;99.90;;;;;;4837109;29;20149;-52
2022/10/12 07:13:36;;;;;;;27.23;15.18;;;12.40;99.90;;;;;;4833586;29;20053;-54
2022/10/12 07:16:03;;;;;;;28.95;15.48;;;12.40;99.90;;;;;;4831570;29;20050;-56
2022/10/12 07:18:30;;;;;;;19.38;13.63;;;12.40;99.90;;;;;;4836614;29;20452;-53
2022/10/12 07:20:58;;;;;;;27.92;17.13;;;12.40;99.90;;;;;;4837203;29;20659;-55
2022/10/12 07:23:26;;;;;;;26.98;15.38;;;12.50;99.90;;;;;;4837202;29;20365;-53
2022/10/12 07:25:53;;;;;;;26.15;15.65;;;12.50;99.90;;;;;;4837203;29;20527;-54
2022/10/12 07:28:21;;;;;;;25.65;14.40;;;12.50;99.90;;;;;;4836143;29;20086;-52
2022/10/12 07:30:49;;;;;;;23.67;15.57;;;12.50;99.90;;;;;;4839488;29;20510;-52
2022/10/12 07:33:15;;;;;;;22.95;14.32;;;12.50;99.90;;;;;;4834978;29;20053;-53
2022/10/12 07:35:42;;;;;;;;;;;12.50;99.90;;;;;;4836270;29;20045;-55
2022/10/12 07:38:29;;;;;;;19.52;13.30;;;12.50;99.90;;;;;;4836785;29;19928;-53
2022/10/12 07:41:00;;;;;;;;;;;12.50;99.90;;;;;;4835255;29;20069;-53
2022/10/12 07:43:28;;;;;;;21.77;14.75;;;12.60;99.90;;;;;;4836018;29;19928;-52
2022/10/12 07:45:54;;;;;;;23.83;14.32;;;12.60;99.90;;;;;;4836739;29;20483;-54
2022/10/12 07:48:21;;;;;;;;;;;12.60;99.90;;;;;;4832216;29;20189;-51
2022/10/12 07:50:49;;;;;;;25.98;13.27;;;12.60;99.90;;;;;;4829728;29;19938;-56
2022/10/12 07:53:15;;;;;;;20.27;13.32;;;12.60;99.90;;;;;;4832718;29;20423;-52
2022/10/12 07:55:42;;;;;;;24.45;13.75;;;12.60;99.90;;;;;;4837722;29;20140;-56
2022/10/12 07:58:08;;;;;;;;;;;12.70;99.90;;;;;;4837956;29;20053;-58
2022/10/12 08:00:35;;;;;;;17.80;12.45;;;12.70;99.90;;;;;;4839355;29;19980;-58
2022/10/12 08:03:02;;;;;;;22.85;13.30;;;12.80;99.90;;;;;;4839344;29;20077;-56
2022/10/12 08:05:29;;;;;;;20.25;13.18;;;12.80;99.90;;;;;;4834982;29;20056;-53
2022/10/12 08:07:56;;;;;;;20.88;13.52;;;12.90;99.90;;;;;;4838216;29;20168;-52
2022/10/12 08:10:22;;;;;;;;;;;13.00;99.90;;;;;;4839250;29;20081;-52
2022/10/12 08:12:49;;;;;;;21.13;12.35;;;13.00;99.90;;;;;;4837871;29;19928;-54
2022/10/12 08:15:18;;;;;;;17.73;11.65;;;13.10;99.90;;;;;;4829939;29;20049;-56
2022/10/12 08:17:44;;;;;;;19.73;13.82;;;13.20;99.90;;;;;;4834694;29;20052;-55
2022/10/12 08:20:11;;;;;;;19.05;13.27;;;13.30;99.90;;;;;;4832058;29;20045;-64
2022/10/12 08:22:38;;;;;;;;;;;13.30;99.90;;;;;;4834217;29;20053;-55
2022/10/12 08:25:05;;;;;;;22.17;14.15;;;13.40;99.90;;;;;;4834151;29;19971;-63
2022/10/12 08:27:32;;;;;;;21.17;13.30;;;13.40;99.90;;;;;;4833329;29;20152;-57
2022/10/12 08:29:59;;;;;;;;;;;13.40;99.90;;;;;;4842245;29;20046;-52
2022/10/12 08:32:26;;;;;;;22.48;13.52;;;13.40;99.90;;;;;;4833927;29;20497;-54
2022/10/12 08:34:52;;;;;;;16.52;11.43;;;13.40;99.90;;;;;;4840099;29;20077;-53
2022/10/12 08:37:19;;;;;;;;;;;13.50;99.90;;;;;;4842418;29;20073;-54
2022/10/12 08:39:46;;;;;;;18.92;12.82;;;13.50;99.90;;;;;;4837741;29;19967;-54
2022/10/12 08:42:43;;;;;;;16.85;11.82;;;13.50;99.90;;;;;;4839470;29;20534;-51
2022/10/12 08:45:26;;;;;;;20.23;13.30;;;13.50;99.90;;;;;;4830983;29;20670;-52
2022/10/12 08:48:41;;;;;;;16.23;11.60;;;13.50;99.90;;;;;;4834953;29;20057;-53
2022/10/12 08:51:15;;;;;;;13.55;10.20;;;13.60;99.90;;;;;;4798743;29;20069;-56
2022/10/12 08:53:45;;;;;;;17.45;10.73;;;13.60;99.90;;;;;;4840430;29;20053;-53
2022/10/12 08:56:19;;;;;;;14.15;10.52;;;13.70;99.90;;;;;;4835291;29;20060;-53
2022/10/12 08:58:48;;;;;;;22.63;13.90;;;13.70;99.90;;;;;;4840309;29;20598;-53
2022/10/12 09:01:20;;;;;;;19.95;12.07;;;13.80;99.90;;;;;;4842050;29;20437;-53
2022/10/12 09:03:59;;;;;;;24.15;12.73;;;13.80;99.90;;;;;;4838522;29;20542;-51
2022/10/12 09:06:32;;;;;;;22.05;12.52;;;13.80;99.90;;;;;;4833787;29;20057;-53
2022/10/12 09:09:26;;;;;;;20.02;11.98;;;13.80;99.90;;;;;;4841003;29;20472;-52
2022/10/12 09:12:20;;;;;;;16.38;10.77;;;13.90;99.90;;;;;;4830326;29;20103;-55
2022/10/12 09:14:49;;;;;;;18.92;10.80;;;13.90;99.90;;;;;;4832928;29;20341;-52
2022/10/12 09:17:37;;;;;;;17.27;11.60;;;14.00;99.90;;;;;;4834856;29;20562;-56
2022/10/12 09:20:29;;;;;;;19.65;13.95;;;14.10;99.90;;;;;;4843432;29;20045;-54
2022/10/12 09:23:18;;;;;;;30.42;14.27;;;14.20;99.90;;;;;;4836850;29;20288;-51
2022/10/12 09:25:45;;;;;;;16.75;12.13;;;14.40;99.90;;;;;;4805383;29;20053;-56
2022/10/12 09:28:29;;;;;;;19.98;13.70;;;14.50;99.90;;;;;;4832295;29;20576;-54
2022/10/12 09:31:20;;;;;;;16.70;11.20;;;14.60;99.90;;;;;;4836949;29;20129;-55
2022/10/12 09:33:55;;;;;;;20.67;12.32;;;14.60;99.90;;;;;;4834422;29;20049;-54
2022/10/12 09:36:24;;;;;;;20.05;13.55;;;14.70;99.90;;;;;;4842805;29;20155;-53
2022/10/12 09:38:51;;;;;;;21.10;12.65;;;14.80;99.90;;;;;;4836665;29;20176;-54
2022/10/12 09:41:25;;;;;;;17.77;11.43;;;14.90;99.90;;;;;;4830066;29;20046;-54
2022/10/12 09:43:55;;;;;;;17.40;10.50;;;14.90;99.90;;;;;;4839969;29;20451;-50
2022/10/12 09:46:47;;;;;;;17.38;10.85;;;15.00;99.90;;;;;;4820458;29;20295;-52
2022/10/12 09:49:13;;;;;;;16.45;9.95;;;15.00;99.90;;;;;;4835668;29;20342;-55
2022/10/12 09:51:41;;;;;;;19.70;13.23;;;15.00;99.90;;;;;;4836857;29;20069;-53
2022/10/12 09:54:22;;;;;;;19.77;13.23;;;15.10;99.90;;;;;;4833950;29;20148;-54
2022/10/12 09:56:51;;;;;;;19.33;11.25;;;15.10;99.90;;;;;;4833063;29;20075;-57
2022/10/12 09:59:42;;;;;;;19.92;11.57;;;15.10;99.90;;;;;;4838510;29;20268;-54
2022/10/12 10:02:22;;;;;;;17.55;11.40;;;15.20;99.90;;;;;;4838545;29;20156;-53
2022/10/12 10:04:51;;;;;;;22.67;12.63;;;15.10;99.90;;;;;;4838173;29;20073;-50
2022/10/12 10:07:20;;;;;;;17.63;12.23;;;15.10;99.90;;;;;;4838581;29;20060;-55
2022/10/12 10:10:03;;;;;;;17.25;10.48;;;15.10;99.90;;;;;;4840903;29;20523;-51
2022/10/12 10:12:30;;;;;;;20.77;11.32;;;15.00;99.90;;;;;;4839518;29;20161;-52
2022/10/12 10:14:58;;;;;;;17.88;11.40;;;15.10;99.90;;;;;;4848557;29;20060;-55
2022/10/12 10:17:31;;;;;;;18.63;11.18;;;15.20;99.90;;;;;;4841438;29;20386;-56
2022/10/12 10:20:01;;;;;;;25.35;12.85;;;15.20;99.90;;;;;;4843064;29;20084;-53
2022/10/12 10:22:28;;;;;;;19.05;10.95;;;15.30;99.90;;;;;;4819522;29;20305;-53
2022/10/12 10:24:57;;;;;;;18.92;12.45;;;15.30;99.90;;;;;;4843423;29;20059;-52
2022/10/12 10:27:30;;;;;;;15.45;11.25;;;15.30;99.90;;;;;;4838247;29;20596;-57
2022/10/12 10:30:15;;;;;;;20.13;12.82;;;15.30;99.90;;;;;;4833360;29;20759;-54
2022/10/12 10:33:16;;;;;;;20.17;12.55;;;15.40;99.90;;;;;;4835334;29;20450;-54
2022/10/12 10:36:03;;;;;;;18.65;14.40;;;15.40;99.90;;;;;;4837109;29;20049;-54
2022/10/12 10:38:36;;;;;;;24.30;15.68;;;15.40;99.90;;;;;;4834683;29;20139;-54
2022/10/12 10:41:05;;;;;;;21.95;13.32;;;15.50;99.90;;;;;;4834868;29;20548;-56
2022/10/12 10:43:33;;;;;;;22.48;13.55;;;15.50;99.90;;;;;;4835853;29;20148;-55
2022/10/12 10:46:02;;;;;;;23.33;14.70;;;15.60;99.90;;;;;;4838342;29;20065;-56
2022/10/12 10:48:34;;;;;;;23.00;15.13;;;15.60;99.90;;;;;;4835407;29;20132;-54
2022/10/12 10:51:05;;;;;;;21.23;13.60;;;15.60;99.90;;;;;;4816027;29;20559;-52
2022/10/12 10:53:43;;;;;;;20.08;12.38;;;15.50;99.90;;;;;;4833911;29;20135;-53
2022/10/12 10:56:15;;;;;;;17.40;11.82;;;15.50;99.90;;;;;;4837476;29;20045;-51
2022/10/12 10:58:45;;;;;;;18.50;12.65;;;15.50;99.90;;;;;;4831849;29;20136;-51
2022/10/12 11:01:21;;;;;;;16.35;11.55;;;15.60;99.90;;;;;;4836544;29;20050;-53
2022/10/12 11:04:03;;;;;;;15.00;11.47;;;15.60;99.90;;;;;;4835012;29;20058;-52
2022/10/12 11:06:40;;;;;;;25.23;11.23;;;15.60;99.90;;;;;;4836519;29;20050;-51
2022/10/12 11:09:18;;;;;;;32.05;14.32;;;15.60;99.90;;;;;;4835382;29;20073;-52
2022/10/12 11:11:53;;;;;;;18.38;12.82;;;15.60;99.90;;;;;;4836064;29;20146;-51
2022/10/12 11:14:27;;;;;;;17.75;12.80;;;15.60;99.90;;;;;;4835844;29;20136;-50
2022/10/12 11:17:01;;;;;;;17.67;10.65;;;15.70;99.90;;;;;;4835226;29;20052;-59
2022/10/12 11:19:42;;;;;;;18.27;12.43;;;15.80;99.90;;;;;;4839013;29;20329;-53
2022/10/12 11:22:18;;;;;;;19.08;10.75;;;15.90;99.90;;;;;;4835274;29;20053;-53
2022/10/12 11:25:08;;;;;;;22.43;11.67;;;16.00;99.90;;;;;;4836931;29;20052;-56
2022/10/12 11:27:40;;;;;;;22.05;12.05;;;16.10;99.90;;;;;;4833900;29;21122;-56
2022/10/12 11:30:18;;;;;;;23.10;12.38;;;16.30;99.90;;;;;;4835773;29;20062;-54
2022/10/12 11:33:02;;;;;;;20.05;11.88;;;16.40;99.90;;;;;;4836978;29;20061;-58
2022/10/12 11:35:39;;;;;;;25.33;12.75;;;16.50;99.90;;;;;;4831388;29;20059;-55
2022/10/12 11:38:17;;;;;;;15.75;10.63;;;16.60;99.90;;;;;;4836199;29;20042;-57
2022/10/12 11:40:49;;;;;;;17.35;11.55;;;16.50;99.90;;;;;;4832623;29;20493;-56
2022/10/12 11:43:58;;;;;;;17.58;11.30;;;16.60;99.90;;;;;;4833226;29;20057;-53
2022/10/12 11:46:45;;;;;;;17.00;10.32;;;16.60;99.90;;;;;;4835745;29;20057;-58
2022/10/12 11:49:29;;;;;;;21.80;12.98;;;16.70;99.90;;;;;;4837844;29;20061;-53
2022/10/12 11:52:07;;;;;;;19.42;10.40;;;16.60;99.90;;;;;;4830997;29;20136;-57
2022/10/12 11:54:46;;;;;;;21.20;12.88;;;16.60;99.90;;;;;;4834152;29;20343;-57
2022/10/12 11:57:17;;;;;;;16.77;10.98;;;16.70;99.90;;;;;;4837590;29;20453;-53
2022/10/12 12:00:09;;;;;;;23.30;16.35;;;16.80;99.90;;;;;;4833985;29;20136;-53
2022/10/12 12:02:43;;;;;;;24.58;16.25;;;16.90;99.90;;;;;;4823053;29;20114;-53
2022/10/12 12:05:14;;;;;;;24.23;16.55;;;17.00;99.90;;;;;;4840358;29;20061;-54
2022/10/12 12:07:46;;;;;;;42.45;21.25;;;17.00;99.90;;;;;;4839142;29;20309;-53
2022/10/12 12:10:33;;;;;;;34.88;21.00;;;17.10;99.90;;;;;;4840631;29;20520;-62
2022/10/12 12:13:11;;;;;;;31.73;19.33;;;17.10;99.90;;;;;;4820390;29;20053;-54
2022/10/12 12:15:51;;;;;;;42.33;21.65;;;17.10;99.90;;;;;;4837545;29;20146;-51
2022/10/12 12:18:19;;;;;;;50.50;23.98;;;17.00;99.90;;;;;;4834181;29;20105;-58
2022/10/12 12:20:46;;;;;;;33.42;21.02;;;16.90;99.90;;;;;;4832804;29;20042;-53
2022/10/12 12:23:18;;;;;;;;;;;16.70;99.90;;;;;;4831874;29;20500;-56
2022/10/12 12:25:46;;;;;;;41.08;21.98;;;16.60;99.90;;;;;;4838494;29;20126;-56
2022/10/12 12:28:21;;;;;;;38.30;23.75;;;16.50;99.90;;;;;;4837016;29;20049;-56
2022/10/12 12:31:01;;;;;;;42.58;22.45;;;16.40;99.90;;;;;;4843562;29;20190;-53
2022/10/12 12:33:34;;;;;;;39.15;22.33;;;16.30;99.90;;;;;;4842809;29;20060;-53
2022/10/12 12:36:10;;;;;;;39.83;23.90;;;16.20;99.90;;;;;;4837362;29;20060;-56
2022/10/12 12:38:44;;;;;;;36.73;23.40;;;16.10;99.90;;;;;;4841686;29;20041;-57
2022/10/12 12:41:17;;;;;;;41.08;23.85;;;16.00;99.90;;;;;;4835166;29;20508;-55
2022/10/12 12:43:43;;;;;;;43.13;23.20;;;15.90;99.90;;;;;;4837039;29;20053;-55
2022/10/12 12:46:11;;;;;;;;;;;15.90;99.90;;;;;;4843458;29;20070;-55
2022/10/12 12:48:38;;;;;;;43.67;22.45;;;15.90;99.90;;;;;;4837887;29;19938;-57
2022/10/12 12:51:08;;;;;;;37.75;21.85;;;15.90;99.90;;;;;;4839668;29;20429;-56
2022/10/12 12:53:38;;;;;;;34.03;22.25;;;15.90;99.90;;;;;;4835178;29;20057;-57
2022/10/12 12:56:14;;;;;;;39.25;22.98;;;15.80;99.90;;;;;;4836882;29;20041;-54
2022/10/12 12:59:18;;;;;;;42.83;24.67;;;15.80;99.90;;;;;;4838986;29;20459;-55